Time;durP1;ratioP1;P1;durP2;ratioP2;P2;SDS_P1;SDS_P2;PMS_P1;PMS_P2;Temp;Humidity;BMP_temperature;BMP_pressure;BME280_temperature;BME280_humidity;BME280_pressure;Samples;Min_cycle;Max_cycle;Signal;HPM_P1;HPM_P2
2022/11/02 00:00:13;;;;;;;6.87;6.23;;;;;;;5.51;65.66;101161.59;449711;118;922690;-74
2022/11/02 00:01:28;;;;;;;7.22;6.60;;;;;;;5.50;65.54;101158.03;449674;118;922540;-75
2022/11/02 00:02:32;;;;;;;6.81;6.18;;;;;;;5.50;65.58;101151.78;449616;118;922470;-76
2022/11/02 00:03:35;;;;;;;6.84;6.30;;;;;;;5.48;65.55;101153.80;449749;118;922544;-76
2022/11/02 00:04:38;;;;;;;6.51;6.01;;;;;;;5.49;65.62;101156.34;449763;116;922517;-75
2022/11/02 00:05:41;;;;;;;7.08;6.41;;;;;;;5.49;65.62;101155.48;449787;118;922483;-75
2022/11/02 00:06:45;;;;;;;6.12;5.54;;;;;;;5.49;65.60;101156.34;449730;118;922538;-76
2022/11/02 00:07:48;;;;;;;6.64;6.11;;;;;;;5.49;65.58;101155.48;449749;118;922621;-76
2022/11/02 00:08:52;;;;;;;6.54;5.97;;;;;;;5.47;65.52;101150.23;449754;116;922519;-76
2022/11/02 00:09:55;;;;;;;6.07;5.57;;;;;;;5.47;65.60;101144.83;449678;118;922455;-75
2022/11/02 00:10:58;;;;;;;7.03;6.42;;;;;;;5.46;65.52;101149.39;449771;118;922627;-75
2022/11/02 00:12:01;;;;;;;7.86;5.83;;;;;;;5.47;65.52;101144.83;449747;118;922369;-77
2022/11/02 00:13:04;;;;;;;6.21;5.24;;;;;;;5.45;65.50;101136.91;449743;118;922510;-75
2022/11/02 00:14:07;;;;;;;5.53;5.03;;;;;;;5.46;65.55;101140.42;449691;118;922558;-76
2022/11/02 00:15:11;;;;;;;6.08;5.48;;;;;;;5.46;65.54;101143.98;449653;118;930602;-76
2022/11/02 00:16:16;;;;;;;5.99;5.51;;;;;;;5.45;65.54;101139.61;449610;118;923003;-76
2022/11/02 00:17:20;;;;;;;6.58;6.07;;;;;;;5.46;65.64;101143.13;449451;118;930555;-76
2022/11/02 00:18:22;;;;;;;6.17;5.67;;;;;;;5.45;65.62;101147.73;449665;118;922579;-76
2022/11/02 00:19:26;;;;;;;6.34;5.74;;;;;;;5.45;65.51;101149.58;449689;118;922965;-75
2022/11/02 00:20:29;;;;;;;6.32;5.71;;;;;;;5.44;65.56;101142.48;449660;118;922964;-76
2022/11/02 00:21:32;;;;;;;6.50;5.90;;;;;;;5.43;65.49;101147.03;449691;118;923349;-76
2022/11/02 00:22:36;;;;;;;7.16;6.31;;;;;;;5.41;65.54;101142.80;449617;118;922662;-75
2022/11/02 00:23:40;;;;;;;6.25;5.75;;;;;;;5.40;65.63;101136.54;449550;118;922920;-75
2022/11/02 00:24:43;;;;;;;6.68;6.09;;;;;;;5.38;65.52;101138.58;449475;118;922783;-75
2022/11/02 00:25:49;;;;;;;6.65;6.05;;;;;;;5.37;65.65;101133.33;449661;118;922990;-75
2022/11/02 00:26:54;;;;;;;6.47;5.32;;;;;;;5.35;65.62;101133.49;449503;118;922520;-75
2022/11/02 00:27:56;;;;;;;6.45;5.63;;;;;;;5.34;65.66;101134.53;449566;118;922883;-76
2022/11/02 00:28:59;;;;;;;6.53;5.95;;;;;;;5.33;65.72;101140.95;449659;118;922548;-76
2022/11/02 00:30:03;;;;;;;6.89;6.32;;;;;;;5.33;65.80;101140.09;447883;118;922923;-76
2022/11/02 00:31:06;;;;;;;7.54;6.73;;;;;;;5.32;65.73;101139.25;433652;122;922734;-76
2022/11/02 00:32:09;;;;;;;6.92;6.33;;;;;;;5.30;65.78;101141.27;436530;118;922681;-76
2022/11/02 00:33:12;;;;;;;6.71;6.09;;;;;;;5.29;65.76;101141.45;447525;118;923023;-76
2022/11/02 00:34:16;;;;;;;6.89;6.12;;;;;;;5.27;65.84;101140.77;447446;118;923221;-76
2022/11/02 00:35:18;;;;;;;6.39;5.79;;;;;;;5.24;65.87;101139.22;447518;118;922856;-76
2022/11/02 00:36:23;;;;;;;6.31;5.71;;;;;;;5.22;65.92;101127.75;447530;118;922921;-77
2022/11/02 00:37:27;;;;;;;7.14;6.57;;;;;;;5.20;65.89;101129.77;447382;118;922654;-76
2022/11/02 00:38:31;;;;;;;6.64;6.06;;;;;;;5.19;65.85;101129.92;446967;118;922633;-76
2022/11/02 00:39:34;;;;;;;6.55;5.94;;;;;;;5.17;65.96;101121.16;446873;118;923029;-77
2022/11/02 00:40:37;;;;;;;6.53;5.78;;;;;;;5.16;66.05;101128.41;447542;118;922607;-77
2022/11/02 00:41:41;;;;;;;6.48;5.90;;;;;;;5.15;66.08;101121.31;447478;118;922547;-76
2022/11/02 00:42:45;;;;;;;6.71;6.09;;;;;;;5.15;66.15;101129.42;447471;118;922932;-75
2022/11/02 00:43:48;;;;;;;6.71;5.69;;;;;;;5.17;66.21;101134.67;447504;118;922939;-75
2022/11/02 00:44:51;;;;;;;6.65;6.01;;;;;;;5.17;66.18;101137.38;446710;118;922531;-76
2022/11/02 00:45:55;;;;;;;6.64;5.65;;;;;;;5.16;66.23;101136.52;446956;118;922856;-76
2022/11/02 00:46:58;;;;;;;7.41;6.55;;;;;;;5.16;66.24;101132.97;446912;118;922959;-76
2022/11/02 00:48:01;;;;;;;6.29;5.75;;;;;;;5.15;66.26;101137.53;457326;116;922511;-76
2022/11/02 00:49:05;;;;;;;6.72;6.22;;;;;;;5.15;66.24;101139.38;457246;114;922880;-76
2022/11/02 00:50:10;;;;;;;6.93;6.35;;;;;;;5.13;66.25;101139.54;457450;115;922568;-77
2022/11/02 00:51:13;;;;;;;6.86;6.26;;;;;;;5.13;66.35;101139.54;461544;115;922919;-77
2022/11/02 00:52:18;;;;;;;7.30;6.57;;;;;;;5.14;66.39;101143.09;461547;115;922524;-77
2022/11/02 00:53:23;;;;;;;6.92;6.35;;;;;;;5.15;66.42;101140.23;461452;113;922632;-76
2022/11/02 00:54:27;;;;;;;6.89;6.38;;;;;;;5.15;66.52;101137.53;461502;115;922521;-76
2022/11/02 00:55:31;;;;;;;7.15;6.55;;;;;;;5.17;66.59;101129.27;458535;115;922503;-75
2022/11/02 00:56:37;;;;;;;7.36;6.68;;;;;;;5.18;66.66;101142.63;457134;115;922591;-76
2022/11/02 00:57:41;;;;;;;8.04;7.31;;;;;;;5.20;66.76;101137.02;457205;115;922485;-76
2022/11/02 00:58:44;;;;;;;8.09;7.13;;;;;;;5.22;66.76;101132.31;457457;116;922597;-76
2022/11/02 00:59:47;;;;;;;6.83;6.23;;;;;;;5.24;66.81;101122.16;457423;116;922600;-76
2022/11/02 01:00:50;;;;;;;7.18;6.58;;;;;;;5.26;66.78;101120.14;457290;116;922473;-76
2022/11/02 01:01:53;;;;;;;7.16;6.56;;;;;;;5.29;66.85;101123.34;457364;115;930920;-77
2022/11/02 01:03:01;;;;;;;6.70;6.16;;;;;;;5.31;66.85;101129.44;457304;116;922755;-76
2022/11/02 01:04:04;;;;;;;7.71;6.82;;;;;;;5.33;66.88;101129.28;457166;114;922662;-76
2022/11/02 01:05:08;;;;;;;7.54;6.94;;;;;;;5.34;66.72;101133.69;457384;116;922852;-77
2022/11/02 01:06:14;;;;;;;7.43;6.88;;;;;;;5.34;66.71;101134.53;457271;116;922990;-76
2022/11/02 01:07:17;;;;;;;8.38;7.65;;;;;;;5.34;66.69;101123.72;457226;116;923731;-75
2022/11/02 01:08:20;;;;;;;7.43;6.86;;;;;;;5.34;66.75;101129.13;457389;115;922528;-75
2022/11/02 01:09:23;;;;;;;8.14;7.45;;;;;;;5.35;66.68;101132.64;457394;114;922693;-75
2022/11/02 01:10:26;;;;;;;8.24;7.44;;;;;;;5.35;66.72;101130.79;457348;115;923044;-76
2022/11/02 01:11:29;;;;;;;8.28;7.58;;;;;;;5.34;66.63;101130.98;457344;116;923067;-75
2022/11/02 01:12:32;;;;;;;7.42;6.84;;;;;;;5.33;66.73;101131.98;457368;116;922463;-76
2022/11/02 01:13:35;;;;;;;7.89;7.19;;;;;;;5.33;66.75;101140.09;457376;115;923440;-76
2022/11/02 01:14:38;;;;;;;7.75;7.15;;;;;;;5.32;66.71;101141.95;457343;114;922444;-76
2022/11/02 01:15:42;;;;;;;7.90;6.75;;;;;;;5.31;66.66;101134.00;457215;116;923010;-76
2022/11/02 01:16:45;;;;;;;7.91;7.24;;;;;;;5.30;66.80;101138.56;457171;116;930578;-76
2022/11/02 01:17:48;;;;;;;6.93;6.29;;;;;;;5.29;66.84;101136.05;457257;116;922634;-75
2022/11/02 01:18:54;;;;;;;7.75;7.05;;;;;;;5.27;66.82;101144.31;457224;116;923035;-75
2022/11/02 01:19:57;;;;;;;7.34;6.71;;;;;;;5.27;66.86;101138.06;457050;116;922486;-76
2022/11/02 01:21:00;;;;;;;7.83;7.13;;;;;;;5.27;67.00;101133.50;457239;116;922750;-76
2022/11/02 01:22:03;;;;;;;7.20;6.59;;;;;;;5.28;67.00;101129.79;457229;116;923273;-75
2022/11/02 01:23:06;;;;;;;6.01;5.51;;;;;;;5.29;67.06;101123.34;457258;116;922631;-76
2022/11/02 01:24:10;;;;;;;6.91;6.28;;;;;;;5.30;67.11;101119.63;457283;116;922912;-76
2022/11/02 01:25:13;;;;;;;7.67;6.71;;;;;;;5.32;67.22;101120.33;457201;116;922492;-77
2022/11/02 01:26:17;;;;;;;6.62;6.02;;;;;;;5.34;67.23;101123.72;457214;116;922592;-77
2022/11/02 01:27:20;;;;;;;6.51;6.01;;;;;;;5.35;67.19;101125.37;457202;116;923041;-77
2022/11/02 01:28:23;;;;;;;7.54;5.36;;;;;;;5.38;67.19;101116.10;457290;116;923063;-76
2022/11/02 01:29:26;;;;;;;6.53;5.99;;;;;;;5.39;67.14;101121.35;457271;116;923404;-75
2022/11/02 01:30:29;;;;;;;6.02;5.41;;;;;;;5.40;67.14;101123.02;453375;116;923032;-76
2022/11/02 01:31:32;;;;;;;5.97;5.47;;;;;;;5.41;67.19;101113.89;452967;117;922523;-76
2022/11/02 01:32:37;;;;;;;6.17;5.62;;;;;;;5.42;67.16;101121.00;456804;116;922945;-75
2022/11/02 01:33:44;;;;;;;6.34;5.74;;;;;;;5.42;67.07;101123.70;456413;116;922546;-75
2022/11/02 01:34:47;;;;;;;5.93;5.34;;;;;;;5.41;66.99;101115.75;449304;118;923027;-75
2022/11/02 01:35:51;;;;;;;5.84;5.27;;;;;;;5.41;67.00;101115.75;449492;118;922677;-76
2022/11/02 01:36:54;;;;;;;5.19;4.78;;;;;;;5.41;67.08;101111.19;449553;117;923031;-76
2022/11/02 01:37:57;;;;;;;5.19;4.79;;;;;;;5.41;67.06;101113.89;449560;118;922544;-75
2022/11/02 01:38:59;;;;;;;5.94;5.48;;;;;;;5.40;67.09;101109.49;449539;116;922568;-74
2022/11/02 01:40:03;;;;;;;6.07;5.57;;;;;;;5.41;67.00;101116.59;449486;118;922515;-76
2022/11/02 01:41:07;;;;;;;5.85;5.41;;;;;;;5.40;66.88;101111.38;449468;117;923810;-75
2022/11/02 01:42:22;;;;;;;5.81;5.23;;;;;;;5.40;67.04;101108.68;442742;119;922567;-75
2022/11/02 01:43:31;;;;;;;5.54;5.02;;;;;;;5.40;67.00;101112.20;434316;120;922657;-75
2022/11/02 01:44:34;;;;;;;6.27;5.67;;;;;;;5.41;67.03;101107.64;449303;116;922523;-76
2022/11/02 01:45:37;;;;;;;5.70;5.18;;;;;;;5.42;67.16;101114.74;449380;117;922530;-76
2022/11/02 01:46:43;;;;;;;6.56;6.01;;;;;;;5.42;67.05;101106.63;449500;117;930566;-76
2022/11/02 01:47:47;;;;;;;6.77;6.17;;;;;;;5.42;67.11;101104.77;449341;118;922518;-75
2022/11/02 01:48:57;;;;;;;6.68;6.11;;;;;;;5.43;67.04;101103.77;449364;116;922618;-75
2022/11/02 01:50:07;;;;;;;7.44;6.20;;;;;;;5.43;67.04;101103.77;449140;118;922589;-75
2022/11/02 01:51:20;;;;;;;7.55;6.87;;;;;;;5.44;67.08;101105.46;449825;116;922646;-76
2022/11/02 01:52:29;;;;;;;6.88;6.24;;;;;;;5.44;67.04;101102.76;456742;115;930533;-75
2022/11/02 01:53:36;;;;;;;7.21;6.60;;;;;;;5.44;67.12;101105.46;457052;115;922526;-75
2022/11/02 01:54:42;;;;;;;6.64;6.04;;;;;;;5.44;66.94;101110.02;457200;114;923098;-76
2022/11/02 01:55:46;;;;;;;7.64;6.24;;;;;;;5.44;66.94;101110.02;457147;115;922519;-75
2022/11/02 01:56:52;;;;;;;6.59;5.82;;;;;;;5.43;67.05;101117.28;457410;116;922892;-76
2022/11/02 01:57:59;;;;;;;6.27;5.74;;;;;;;5.43;67.07;101119.99;450219;117;922593;-75
2022/11/02 01:59:06;;;;;;;7.34;5.84;;;;;;;5.43;67.11;101117.28;450781;116;922887;-76
2022/11/02 02:00:13;;;;;;;5.92;5.42;;;;;;;5.43;67.04;101111.03;457209;116;922463;-76
2022/11/02 02:01:16;;;;;;;6.46;5.86;;;;;;;5.42;67.08;101104.77;457185;116;923170;-76
2022/11/02 02:02:21;;;;;;;6.13;5.53;;;;;;;5.43;67.11;101102.92;457345;116;922968;-76
2022/11/02 02:03:25;;;;;;;6.61;6.01;;;;;;;5.44;67.17;101104.62;457143;116;922462;-75
2022/11/02 02:04:28;;;;;;;5.94;5.44;;;;;;;5.44;67.18;101101.91;457283;116;922560;-75
2022/11/02 02:05:35;;;;;;;6.52;5.98;;;;;;;5.44;67.13;101097.35;457227;116;930618;-76
2022/11/02 02:06:39;;;;;;;6.06;5.55;;;;;;;5.46;67.26;101102.56;457155;115;922946;-76
2022/11/02 02:07:44;;;;;;;6.59;5.99;;;;;;;5.46;67.23;101095.30;457245;116;922497;-76
2022/11/02 02:08:50;;;;;;;6.26;5.62;;;;;;;5.49;67.29;101101.40;450240;116;930603;-76
2022/11/02 02:09:54;;;;;;;6.22;5.66;;;;;;;5.51;67.32;101110.20;450687;116;922675;-75
2022/11/02 02:10:58;;;;;;;6.12;5.65;;;;;;;5.52;67.31;101103.75;457170;116;922659;-76
2022/11/02 02:12:01;;;;;;;7.50;5.78;;;;;;;5.53;67.27;101100.88;457242;116;930539;-75
2022/11/02 02:13:06;;;;;;;6.39;5.89;;;;;;;5.54;67.24;101099.03;457369;116;923091;-76
2022/11/02 02:14:12;;;;;;;5.47;4.96;;;;;;;5.55;67.25;101101.57;457157;116;923017;-76
2022/11/02 02:15:18;;;;;;;6.44;5.49;;;;;;;5.56;67.22;101105.13;456500;115;922985;-75
2022/11/02 02:16:26;;;;;;;6.04;5.52;;;;;;;5.57;67.17;101101.41;449016;117;922708;-76
2022/11/02 02:17:44;;;;;;;5.59;5.15;;;;;;;5.56;67.17;101105.97;449249;116;923180;-77
2022/11/02 02:18:53;;;;;;;7.14;5.32;;;;;;;5.55;67.16;101092.61;454758;116;922637;-77
2022/11/02 02:20:09;;;;;;;5.74;5.23;;;;;;;5.53;67.25;101100.03;456594;116;923018;-76
2022/11/02 02:21:28;;;;;;;5.65;5.12;;;;;;;5.52;67.23;101103.75;456615;116;922974;-77
2022/11/02 02:22:46;;;;;;;6.12;5.49;;;;;;;5.49;67.34;101093.28;455486;116;922530;-76
2022/11/02 02:23:59;;;;;;;5.83;5.33;;;;;;;5.47;67.28;101096.15;456648;116;922622;-76
2022/11/02 02:25:26;;;;;;;5.82;5.33;;;;;;;5.43;67.35;101095.66;446793;118;922778;-77
2022/11/02 02:26:48;;;;;;;5.77;5.27;;;;;;;5.41;67.48;101096.83;456700;116;922530;-76
2022/11/02 02:28:15;;;;;;;5.79;5.29;;;;;;;5.39;67.51;101088.91;447821;118;922644;-76
2022/11/02 02:29:25;;;;;;;5.72;5.21;;;;;;;5.36;67.64;101081.11;451202;116;922700;-76
2022/11/02 02:30:31;;;;;;;7.09;5.56;;;;;;;5.35;67.81;101087.53;454282;116;922480;-76
2022/11/02 02:31:41;;;;;;;5.49;5.07;;;;;;;5.35;67.88;101087.53;453960;117;922623;-77
2022/11/02 02:32:58;;;;;;;5.50;5.00;;;;;;;5.35;67.86;101090.23;449336;117;922506;-76
2022/11/02 02:34:26;;;;;;;5.48;4.96;;;;;;;5.38;67.99;101091.77;449334;114;922511;-76
2022/11/02 02:35:38;;;;;;;6.36;5.86;;;;;;;5.39;68.01;101098.88;449385;117;923009;-76
2022/11/02 02:36:51;;;;;;;6.16;5.66;;;;;;;5.39;68.14;101091.61;449320;118;923493;-75
2022/11/02 02:38:03;;;;;;;6.27;5.77;;;;;;;5.40;68.12;101087.05;449389;118;922560;-76
2022/11/02 02:39:13;;;;;;;5.91;5.41;;;;;;;5.40;68.21;101089.75;449346;116;922548;-75
2022/11/02 02:40:32;;;;;;;6.03;5.63;;;;;;;5.41;68.40;101086.00;449249;118;922887;-76
2022/11/02 02:41:42;;;;;;;5.43;4.93;;;;;;;5.43;68.44;101086.69;449302;118;922482;-75
2022/11/02 02:42:57;;;;;;;5.46;4.96;;;;;;;5.46;68.45;101081.78;448749;117;922610;-76
2022/11/02 02:44:04;;;;;;;5.17;4.73;;;;;;;5.48;68.54;101081.62;449302;116;922657;-76
2022/11/02 02:45:41;;;;;;;5.71;5.24;;;;;;;5.52;68.49;101079.41;449347;118;922532;-76
2022/11/02 02:46:56;;;;;;;6.61;5.89;;;;;;;5.54;68.44;101080.09;449313;118;922475;-76
2022/11/02 02:48:15;;;;;;;5.79;5.30;;;;;;;5.56;68.49;101078.92;447983;116;922504;-76
2022/11/02 02:49:22;;;;;;;6.10;5.57;;;;;;;5.57;68.53;101064.36;447271;116;922675;-77
2022/11/02 02:50:28;;;;;;;6.04;5.44;;;;;;;5.60;68.48;101074.01;451459;115;922539;-75
2022/11/02 02:51:33;;;;;;;5.51;5.05;;;;;;;5.61;68.54;101073.84;461416;115;923272;-77
2022/11/02 02:52:42;;;;;;;5.47;4.97;;;;;;;5.64;68.52;101070.78;461466;115;922584;-76
2022/11/02 02:53:49;;;;;;;5.64;5.16;;;;;;;5.67;68.51;101075.88;461489;115;922658;-76
2022/11/02 02:54:56;;;;;;;6.08;5.53;;;;;;;5.70;68.61;101069.25;461504;115;922906;-76
2022/11/02 02:56:01;;;;;;;5.53;5.03;;;;;;;5.73;68.55;101064.33;461473;115;922563;-76
2022/11/02 02:57:11;;;;;;;4.98;4.57;;;;;;;5.76;68.41;101063.16;461487;115;922618;-76
2022/11/02 02:58:27;;;;;;;5.18;4.78;;;;;;;5.78;68.36;101058.44;461488;115;922554;-77
2022/11/02 02:59:36;;;;;;;5.81;5.28;;;;;;;5.80;68.27;101061.80;452247;116;922719;-76
2022/11/02 03:00:48;;;;;;;6.08;5.49;;;;;;;5.94;68.27;101069.25;476954;110;946987;-76
2022/11/02 03:01:53;;;;;;;5.97;5.47;;;;;;;5.84;68.17;101068.58;465435;114;922510;-76
2022/11/02 03:03:00;;;;;;;5.71;5.26;;;;;;;5.85;68.11;101071.08;465320;114;923111;-76
2022/11/02 03:04:04;;;;;;;5.87;4.86;;;;;;;5.84;68.00;101073.98;459308;114;922831;-76
2022/11/02 03:05:33;;;;;;;6.16;5.09;;;;;;;5.84;67.99;101072.09;462359;112;922618;-77
2022/11/02 03:06:38;;;;;;;5.49;4.96;;;;;;;5.83;67.90;101077.70;461622;114;922548;-76
2022/11/02 03:07:42;;;;;;;5.34;4.85;;;;;;;5.81;67.83;101068.90;462519;112;922580;-76
2022/11/02 03:09:03;;;;;;;4.81;4.42;;;;;;;5.79;67.90;101057.39;471368;112;922473;-76
2022/11/02 03:10:19;;;;;;;5.64;4.50;;;;;;;5.78;67.95;101048.45;470997;112;924058;-75
2022/11/02 03:11:23;;;;;;;5.01;4.54;;;;;;;5.78;68.04;101051.16;471270;112;922497;-75
2022/11/02 03:12:32;;;;;;;5.28;4.81;;;;;;;5.79;68.12;101051.98;461991;114;922574;-76
2022/11/02 03:14:12;;;;;;;6.32;5.08;;;;;;;5.79;68.19;101060.09;463067;112;930591;-76
2022/11/02 03:15:28;;;;;;;4.68;4.27;;;;;;;5.81;68.16;101066.19;471234;112;922763;-76
2022/11/02 03:16:56;;;;;;;10.68;4.72;;;;;;;5.79;68.17;101071.77;465425;112;922542;-76
2022/11/02 03:18:22;;;;;;;4.86;4.46;;;;;;;5.75;68.12;101078.55;455842;116;922628;-75
2022/11/02 03:19:41;;;;;;;8.25;5.24;;;;;;;5.70;68.05;101082.78;458598;114;922583;-76
2022/11/02 03:20:48;;;;;;;5.41;4.91;;;;;;;5.63;68.10;101077.20;463006;114;922898;-77
2022/11/02 03:22:01;;;;;;;5.55;5.06;;;;;;;5.58;68.27;101086.84;463076;114;922521;-77
2022/11/02 03:23:18;;;;;;;4.94;4.54;;;;;;;5.53;68.30;101090.06;463035;114;922464;-76
2022/11/02 03:24:36;;;;;;;5.56;5.12;;;;;;;5.48;68.35;101095.14;456262;116;922848;-75
2022/11/02 03:25:55;;;;;;;4.91;4.51;;;;;;;5.44;68.50;101091.09;457781;114;922630;-76
2022/11/02 03:27:20;;;;;;;5.78;5.04;;;;;;;5.38;68.60;101092.61;463019;114;922518;-75
2022/11/02 03:28:33;;;;;;;4.42;4.05;;;;;;;5.35;68.74;101083.97;462944;114;922462;-76
2022/11/02 03:29:39;;;;;;;5.92;4.38;;;;;;;5.32;68.93;101081.63;462980;114;922441;-76
2022/11/02 03:30:48;;;;;;;4.94;4.44;;;;;;;5.30;68.94;101080.93;462983;114;922504;-76
2022/11/02 03:32:03;;;;;;;5.00;4.57;;;;;;;5.30;69.07;101080.93;462643;114;922563;-76
2022/11/02 03:33:11;;;;;;;4.59;4.23;;;;;;;5.29;69.21;101081.97;437661;119;922671;-76
2022/11/02 03:34:42;;;;;;;4.59;4.19;;;;;;;5.29;69.27;101077.37;454257;114;923186;-76
2022/11/02 03:36:06;;;;;;;5.08;4.58;;;;;;;5.30;69.29;101057.45;463003;114;922507;-76
2022/11/02 03:37:43;;;;;;;5.62;4.31;;;;;;;5.31;69.45;101048.33;463007;114;922846;-76
2022/11/02 03:38:50;;;;;;;5.37;4.84;;;;;;;5.33;69.48;101031.95;462984;114;922497;-76
2022/11/02 03:40:03;;;;;;;4.81;4.38;;;;;;;5.35;69.67;101041.56;463039;114;922322;-76
2022/11/02 03:41:07;;;;;;;4.84;4.43;;;;;;;5.38;69.62;101048.50;462538;114;923443;-76
2022/11/02 03:42:14;;;;;;;5.18;4.72;;;;;;;5.39;69.68;101040.23;463052;114;923563;-77
2022/11/02 03:43:21;;;;;;;5.22;4.67;;;;;;;5.41;69.60;101034.63;463082;114;922635;-76
2022/11/02 03:44:25;;;;;;;4.61;4.22;;;;;;;5.42;69.55;101037.17;469968;112;922884;-76
2022/11/02 03:45:36;;;;;;;4.66;4.26;;;;;;;5.45;69.57;101038.70;461903;114;922941;-76
2022/11/02 03:46:42;;;;;;;4.99;4.56;;;;;;;5.48;69.59;101046.46;463138;112;922562;-76
2022/11/02 03:47:56;;;;;;;4.52;4.04;;;;;;;5.52;69.60;101036.98;471320;112;922571;-76
2022/11/02 03:49:01;;;;;;;5.29;4.81;;;;;;;5.55;69.52;101033.11;471276;112;922615;-75
2022/11/02 03:50:08;;;;;;;5.34;4.86;;;;;;;5.57;69.67;101029.20;471171;112;922473;-75
2022/11/02 03:51:14;;;;;;;5.28;4.55;;;;;;;5.61;69.67;101027.02;463097;114;922941;-77
2022/11/02 03:52:21;;;;;;;4.67;4.27;;;;;;;5.63;69.66;101031.22;453936;116;922650;-76
2022/11/02 03:53:49;;;;;;;4.94;4.52;;;;;;;5.67;69.58;101032.59;454735;114;923005;-77
2022/11/02 03:54:59;;;;;;;5.55;4.72;;;;;;;5.70;69.59;101032.23;462991;114;922590;-76
2022/11/02 03:56:09;;;;;;;5.53;4.80;;;;;;;5.74;69.56;101041.68;453874;116;922714;-76
2022/11/02 03:57:19;;;;;;;5.21;4.75;;;;;;;5.77;69.60;101037.80;447293;117;922620;-76
2022/11/02 03:58:23;;;;;;;5.11;4.71;;;;;;;5.78;69.58;101034.08;455158;114;923064;-76
2022/11/02 04:01:39;;;;;;;4.20;3.82;;;;;;;5.82;69.31;101049.80;461646;114;922888;-76
2022/11/02 04:02:46;;;;;;;4.73;4.34;;;;;;;5.81;69.32;101052.66;461916;114;922533;-77
2022/11/02 04:03:49;;;;;;;4.42;4.02;;;;;;;5.81;69.35;101060.78;463707;114;922862;-76
2022/11/02 04:04:53;;;;;;;4.74;4.29;;;;;;;5.81;69.34;101055.38;463894;114;922582;-76
2022/11/02 04:05:58;;;;;;;6.71;4.66;;;;;;;5.82;69.29;101067.89;462451;114;922832;-77
2022/11/02 04:07:03;;;;;;;4.70;4.29;;;;;;;5.82;69.24;101073.30;462277;114;922561;-75
2022/11/02 04:08:22;;;;;;;4.80;3.95;;;;;;;5.83;69.17;101061.47;462546;114;922596;-75
2022/11/02 04:09:27;;;;;;;5.14;4.23;;;;;;;5.84;69.19;101073.98;462480;114;922514;-75
2022/11/02 04:10:30;;;;;;;4.69;4.29;;;;;;;5.84;69.13;101072.09;462574;114;922497;-76
2022/11/02 04:15:41;;;;;;;4.87;4.47;;;;;;;5.91;69.22;101063.32;462333;114;922811;-76
2022/11/02 04:16:44;;;;;;;4.46;4.11;;;;;;;5.93;69.22;101061.30;462457;114;922593;-76
2022/11/02 04:19:29;;;;;;;4.01;3.71;;;;;;;5.96;69.22;101055.52;462389;114;922502;-76
2022/11/02 04:20:34;;;;;;;4.99;4.53;;;;;;;5.99;69.22;101053.34;461962;113;922588;-76
2022/11/02 04:21:37;;;;;;;6.94;4.79;;;;;;;6.00;69.16;101055.03;462479;114;922679;-75
2022/11/02 04:25:25;;;;;;;4.64;4.24;;;;;;;6.06;68.93;101048.08;462333;114;922441;-75
2022/11/02 04:26:39;;;;;;;4.92;4.51;;;;;;;6.05;68.78;101051.80;461157;113;922518;-75
2022/11/02 04:27:45;;;;;;;4.30;3.95;;;;;;;6.06;68.79;101053.49;462458;114;922486;-76
2022/11/02 04:28:48;;;;;;;4.31;4.01;;;;;;;6.07;68.81;101047.03;462330;114;922406;-76
2022/11/02 04:29:52;;;;;;;5.92;4.52;;;;;;;6.08;68.71;101056.84;457146;116;922508;-75
2022/11/02 04:30:59;;;;;;;4.35;4.02;;;;;;;6.09;68.66;101053.13;455748;114;922658;-76
2022/11/02 04:32:03;;;;;;;4.77;4.30;;;;;;;6.10;68.71;101043.99;462331;114;922531;-75
2022/11/02 04:34:32;;;;;;;4.90;4.43;;;;;;;6.13;68.55;101039.06;462024;114;922585;-75
2022/11/02 04:35:36;;;;;;;4.68;4.28;;;;;;;6.15;68.51;101041.61;462482;114;922466;-75
2022/11/02 04:36:40;;;;;;;4.14;3.74;;;;;;;6.16;68.40;101043.30;462523;114;922871;-75
2022/11/02 04:39:08;;;;;;;4.16;3.83;;;;;;;6.19;68.36;101042.94;462179;114;930465;-76
2022/11/02 04:40:12;;;;;;;4.96;4.41;;;;;;;6.19;68.33;101040.23;465455;112;922450;-76
2022/11/02 04:42:39;;;;;;;4.60;4.18;;;;;;;6.21;68.31;101036.34;470681;112;922989;-75
2022/11/02 04:43:43;;;;;;;4.63;4.22;;;;;;;6.23;68.28;101036.14;470807;112;922467;-75
2022/11/02 04:44:46;;;;;;;4.86;4.34;;;;;;;6.24;68.26;101027.85;470779;112;922607;-76
2022/11/02 04:45:51;;;;;;;5.43;4.69;;;;;;;6.26;68.28;101039.36;470374;112;930536;-75
2022/11/02 04:46:55;;;;;;;5.35;4.64;;;;;;;6.27;68.20;101034.80;470746;112;922539;-75
2022/11/02 04:48:06;;;;;;;6.82;4.64;;;;;;;6.29;68.15;101028.16;470599;112;922958;-76
2022/11/02 04:49:11;;;;;;;4.42;3.82;;;;;;;6.32;68.07;101036.97;470636;112;922828;-76
2022/11/02 04:50:14;;;;;;;4.36;3.98;;;;;;;6.31;68.04;101046.95;467083;113;922599;-75
2022/11/02 04:51:19;;;;;;;4.70;4.29;;;;;;;6.32;67.87;101054.06;460244;114;922648;-75
2022/11/02 04:52:22;;;;;;;5.41;4.08;;;;;;;6.32;67.85;101058.63;462365;114;922491;-77
2022/11/02 04:53:26;;;;;;;5.01;3.89;;;;;;;6.32;67.72;101058.63;462460;114;922456;-76
2022/11/02 04:54:29;;;;;;;4.99;4.53;;;;;;;6.31;67.68;101052.38;462491;114;930484;-75
2022/11/02 04:55:34;;;;;;;10.28;4.53;;;;;;;6.30;67.66;101053.38;462353;114;922582;-76
2022/11/02 04:56:37;;;;;;;5.03;4.53;;;;;;;6.32;67.72;101055.92;462586;114;922997;-76
2022/11/02 04:57:45;;;;;;;5.50;4.88;;;;;;;6.32;67.74;101058.63;462509;114;922488;-76
2022/11/02 04:58:56;;;;;;;6.44;4.89;;;;;;;6.32;67.66;101070.31;462342;114;923135;-76
2022/11/02 05:00:00;;;;;;;5.14;4.64;;;;;;;6.33;67.62;101068.45;462346;114;922519;-75
2022/11/02 05:01:08;;;;;;;4.89;4.35;;;;;;;6.33;67.61;101072.01;462390;114;923093;-76
2022/11/02 05:02:12;;;;;;;4.97;4.51;;;;;;;6.34;67.65;101064.73;462346;114;923048;-76
2022/11/02 05:03:16;;;;;;;4.62;4.22;;;;;;;6.34;67.67;101062.84;462491;114;922959;-76
2022/11/02 05:04:19;;;;;;;5.08;4.51;;;;;;;6.36;67.65;101062.67;462525;114;922879;-76
2022/11/02 05:05:23;;;;;;;5.33;4.72;;;;;;;6.36;67.58;101060.81;462440;114;922801;-76
2022/11/02 05:06:27;;;;;;;5.11;4.71;;;;;;;6.38;67.62;101061.49;462373;114;930615;-76
2022/11/02 05:07:30;;;;;;;5.47;4.83;;;;;;;6.39;67.46;101065.89;462593;114;922521;-76
2022/11/02 05:08:34;;;;;;;5.16;4.56;;;;;;;6.39;67.57;101071.31;462520;114;923119;-76
2022/11/02 05:09:38;;;;;;;5.18;4.67;;;;;;;6.39;67.49;101070.46;462370;114;922513;-75
2022/11/02 05:10:41;;;;;;;5.54;4.43;;;;;;;6.40;67.56;101072.97;462358;114;930544;-76
2022/11/02 05:11:45;;;;;;;6.02;4.99;;;;;;;6.42;67.57;101070.09;453995;116;922554;-76
2022/11/02 05:12:52;;;;;;;6.91;4.53;;;;;;;6.44;67.54;101073.48;453973;116;930599;-76
2022/11/02 05:13:55;;;;;;;4.98;4.47;;;;;;;6.44;67.48;101071.63;461012;114;922643;-76
2022/11/02 05:14:58;;;;;;;5.96;4.92;;;;;;;6.45;67.43;101064.34;462564;114;922517;-75
2022/11/02 05:16:01;;;;;;;6.68;4.52;;;;;;;6.47;67.46;101062.28;462475;114;922561;-76
2022/11/02 05:17:05;;;;;;;5.45;4.49;;;;;;;6.48;67.46;101061.27;462630;114;922579;-76
2022/11/02 05:18:09;;;;;;;5.29;4.84;;;;;;;6.48;67.37;101064.83;462435;114;922515;-77
2022/11/02 05:19:14;;;;;;;5.31;4.81;;;;;;;6.50;67.35;101067.36;457232;116;922949;-75
2022/11/02 05:20:18;;;;;;;6.74;5.11;;;;;;;6.50;67.39;101068.21;450741;115;922656;-74
2022/11/02 05:21:21;;;;;;;5.91;4.54;;;;;;;6.51;67.32;101059.04;458390;114;922639;-75
2022/11/02 05:22:24;;;;;;;4.65;4.24;;;;;;;6.52;67.29;101062.59;462595;114;922506;-76
2022/11/02 05:23:28;;;;;;;5.03;4.63;;;;;;;6.52;67.34;101066.16;462478;114;922459;-76
2022/11/02 05:24:31;;;;;;;5.41;4.43;;;;;;;6.53;67.32;101070.55;462498;113;922550;-76
2022/11/02 05:25:34;;;;;;;5.54;4.75;;;;;;;6.53;67.26;101064.29;457744;116;930606;-75
2022/11/02 05:26:38;;;;;;;5.76;5.24;;;;;;;6.53;67.19;101061.58;457972;114;922740;-76